Time;durP1;ratioP1;P1;durP2;ratioP2;P2;SDS_P1;SDS_P2;PMS_P1;PMS_P2;Temp;Humidity;BMP_temperature;BMP_pressure;BME280_temperature;BME280_humidity;BME280_pressure;Samples;Min_cycle;Max_cycle;Signal;HPM_P1;HPM_P2
2021/10/21 00:00:45;;;;;;;11.20;10.17;;;16.30;99.90;;;;;;5041211;28;20446;-91
2021/10/21 00:03:12;;;;;;;11.17;10.03;;;16.20;99.90;;;;;;5028072;28;20484;-91
2021/10/21 00:05:39;;;;;;;10.80;9.70;;;16.20;99.90;;;;;;5022456;28;20452;-91
2021/10/21 00:08:06;;;;;;;11.40;10.30;;;16.20;99.90;;;;;;5021080;28;20480;-93
2021/10/21 00:10:33;;;;;;;14.23;11.57;;;15.90;99.90;;;;;;4999419;28;20524;-92
2021/10/21 00:13:00;;;;;;;13.20;11.83;;;15.80;99.90;;;;;;4995760;28;20799;-90
2021/10/21 00:15:29;;;;;;;15.10;12.63;;;15.70;99.90;;;;;;4987230;28;20532;-93
2021/10/21 00:17:56;;;;;;;12.87;11.53;;;15.70;99.90;;;;;;4987392;28;20478;-93
2021/10/21 00:20:23;;;;;;;14.00;12.27;;;15.70;99.90;;;;;;4981728;28;20552;-92
2021/10/21 00:22:50;;;;;;;13.93;12.63;;;15.70;99.90;;;;;;4982596;28;20818;-92
2021/10/21 00:25:18;;;;;;;13.50;12.20;;;15.70;99.90;;;;;;4982972;28;20458;-94
2021/10/21 00:27:45;;;;;;;13.47;11.67;;;15.70;99.90;;;;;;4991120;28;20825;-93
2021/10/21 00:30:12;;;;;;;14.10;12.60;;;15.70;99.90;;;;;;4983400;28;20958;-93
2021/10/21 00:32:42;;;;;;;12.40;11.20;;;15.60;99.90;;;;;;4982086;28;20441;-92
2021/10/21 00:35:09;;;;;;;11.40;10.30;;;15.70;99.90;;;;;;4987549;28;20460;-92
2021/10/21 00:37:36;;;;;;;11.37;10.23;;;15.60;99.90;;;;;;5018312;28;20472;-92
2021/10/21 00:40:05;;;;;;;11.80;10.63;;;15.60;99.90;;;;;;5006806;28;20443;-93
2021/10/21 00:42:32;;;;;;;12.17;11.10;;;15.50;99.90;;;;;;5006821;28;20550;-94
2021/10/21 00:44:59;;;;;;;11.87;10.73;;;15.40;99.90;;;;;;5009692;28;20442;-93
2021/10/21 00:47:27;;;;;;;14.90;12.73;;;15.40;99.90;;;;;;5003649;28;20470;-93
2021/10/21 00:49:55;;;;;;;14.27;12.83;;;15.40;99.90;;;;;;5000701;28;20831;-92
2021/10/21 00:52:24;;;;;;;18.27;16.33;;;15.40;99.90;;;;;;5002262;28;20447;-92
2021/10/21 00:54:53;;;;;;;19.10;17.10;;;15.40;99.90;;;;;;5002196;28;20452;-93
2021/10/21 00:57:19;;;;;;;23.57;18.07;;;15.40;99.90;;;;;;5001442;28;20983;-93
2021/10/21 00:59:48;;;;;;;15.57;13.97;;;15.40;99.90;;;;;;5003272;28;20466;-92
2021/10/21 01:02:15;;;;;;;17.40;14.80;;;15.50;99.90;;;;;;5014642;28;20438;-93
2021/10/21 01:04:43;;;;;;;16.87;13.90;;;15.40;99.90;;;;;;4987927;28;20459;-92
2021/10/21 01:07:12;;;;;;;14.53;13.03;;;15.40;99.90;;;;;;4995505;28;20435;-92
2021/10/21 01:09:42;;;;;;;16.10;14.30;;;15.40;99.90;;;;;;4996432;28;20495;-93
2021/10/21 01:12:11;;;;;;;12.20;10.83;;;15.40;99.90;;;;;;5001596;28;20976;-91
2021/10/21 01:14:38;;;;;;;13.40;11.97;;;15.30;99.90;;;;;;5014641;28;20433;-92
2021/10/21 01:17:04;;;;;;;14.27;12.77;;;15.40;99.90;;;;;;5019497;28;20482;-91
2021/10/21 01:19:32;;;;;;;15.37;12.03;;;15.30;99.90;;;;;;5019942;28;20435;-91
2021/10/21 01:22:02;;;;;;;11.93;10.83;;;15.30;99.90;;;;;;5015886;28;20839;-91
2021/10/21 01:24:29;;;;;;;18.63;11.13;;;15.30;99.90;;;;;;5011944;28;20482;-91
2021/10/21 01:26:56;;;;;;;10.80;9.80;;;15.30;99.90;;;;;;5019757;28;20530;-92
2021/10/21 01:29:24;;;;;;;10.70;9.60;;;15.30;99.90;;;;;;4996807;28;20443;-92
2021/10/21 01:31:52;;;;;;;12.50;9.53;;;15.20;99.90;;;;;;4982563;28;20448;-92
2021/10/21 01:34:19;;;;;;;11.47;9.67;;;15.20;99.90;;;;;;4983515;28;20458;-92
2021/10/21 01:36:50;;;;;;;10.30;9.30;;;15.10;99.90;;;;;;5001881;28;20510;-91
2021/10/21 01:39:19;;;;;;;10.73;9.63;;;15.10;99.90;;;;;;5010167;28;20447;-91
2021/10/21 01:41:45;;;;;;;11.87;10.60;;;15.10;99.90;;;;;;5013261;28;20448;-92
2021/10/21 01:44:12;;;;;;;12.23;11.03;;;15.10;99.90;;;;;;5012085;28;20471;-91
2021/10/21 01:46:40;;;;;;;15.57;12.87;;;15.10;99.90;;;;;;5016601;28;20424;-92
2021/10/21 01:49:06;;;;;;;18.10;13.40;;;15.10;99.90;;;;;;5004486;28;20459;-91
2021/10/21 01:51:34;;;;;;;18.97;14.50;;;15.00;99.90;;;;;;4994070;28;20463;-92
2021/10/21 01:54:01;;;;;;;19.00;15.30;;;15.00;99.90;;;;;;4987067;28;20531;-92
2021/10/21 01:56:29;;;;;;;17.13;15.33;;;14.90;99.90;;;;;;4989319;28;20447;-90
2021/10/21 01:58:56;;;;;;;16.03;14.13;;;14.90;99.90;;;;;;5008017;28;20466;-90
2021/10/21 02:01:22;;;;;;;13.70;11.73;;;14.90;99.90;;;;;;5008325;28;20452;-90
2021/10/21 02:03:49;;;;;;;13.20;11.90;;;14.90;99.90;;;;;;5006840;28;20485;-90
2021/10/21 02:06:17;;;;;;;11.93;10.40;;;14.90;99.90;;;;;;4987114;28;20899;-90
2021/10/21 02:08:44;;;;;;;12.43;10.53;;;14.90;99.90;;;;;;4989979;28;20479;-91
2021/10/21 02:11:11;;;;;;;11.60;10.30;;;15.00;99.90;;;;;;4983914;28;20440;-91
2021/10/21 02:13:39;;;;;;;11.03;9.47;;;15.00;99.90;;;;;;4981645;28;20453;-90
2021/10/21 02:16:08;;;;;;;12.93;11.70;;;15.00;99.90;;;;;;5000798;28;20441;-91
2021/10/21 02:18:35;;;;;;;12.03;9.63;;;14.90;99.90;;;;;;5018627;28;20497;-90
2021/10/21 02:21:04;;;;;;;12.37;11.17;;;14.90;99.90;;;;;;4992319;28;20445;-91
2021/10/21 02:23:31;;;;;;;13.27;9.50;;;14.90;99.90;;;;;;5008711;28;20850;-91
2021/10/21 02:25:58;;;;;;;10.70;9.60;;;15.00;99.90;;;;;;5006208;28;20510;-92
2021/10/21 02:28:25;;;;;;;11.03;9.93;;;15.00;99.90;;;;;;5000378;28;20475;-91
2021/10/21 02:30:54;;;;;;;10.40;9.50;;;15.00;99.90;;;;;;4998721;28;20451;-91
2021/10/21 02:33:21;;;;;;;10.73;9.60;;;15.00;99.90;;;;;;4997780;28;20430;-91
2021/10/21 02:35:48;;;;;;;9.80;8.90;;;15.00;99.90;;;;;;4995965;28;20462;-92
2021/10/21 02:38:16;;;;;;;9.63;8.50;;;15.00;99.90;;;;;;4995988;28;20460;-91
2021/10/21 02:40:43;;;;;;;9.93;8.60;;;15.00;99.90;;;;;;4996183;28;20455;-91
2021/10/21 02:43:10;;;;;;;8.70;7.80;;;15.00;99.90;;;;;;4978373;28;20861;-91
2021/10/21 02:45:37;;;;;;;8.67;7.80;;;15.00;99.90;;;;;;4977877;28;20826;-91
2021/10/21 02:48:06;;;;;;;7.50;6.90;;;15.00;99.90;;;;;;4975676;28;20455;-91
2021/10/21 02:50:33;;;;;;;7.13;6.27;;;15.10;99.90;;;;;;4975454;28;20448;-91
2021/10/21 02:53:00;;;;;;;6.67;6.13;;;15.10;99.90;;;;;;4976147;28;20456;-90
2021/10/21 02:55:27;;;;;;;7.13;6.43;;;15.10;99.90;;;;;;4974992;28;20452;-91
2021/10/21 02:57:53;;;;;;;6.90;6.30;;;15.20;99.90;;;;;;4974827;28;20474;-90
2021/10/21 03:00:20;;;;;;;5.40;4.80;;;15.30;99.90;;;;;;4974383;28;20814;-90
2021/10/21 03:02:48;;;;;;;8.20;7.40;;;15.30;99.90;;;;;;4983532;28;20435;-91
2021/10/21 03:05:16;;;;;;;7.00;6.30;;;15.30;99.90;;;;;;5001928;28;20442;-91
2021/10/21 03:07:42;;;;;;;6.60;5.80;;;15.30;99.90;;;;;;4991553;28;20531;-90
2021/10/21 03:10:10;;;;;;;6.53;4.50;;;15.50;99.90;;;;;;4977559;28;20458;-91
2021/10/21 03:12:36;;;;;;;5.33;3.73;;;15.60;99.90;;;;;;4977781;28;20449;-91
2021/10/21 03:15:04;;;;;;;8.00;4.53;;;15.80;99.90;;;;;;4990852;28;20463;-92
2021/10/21 03:17:30;;;;;;;3.83;3.10;;;15.80;99.90;;;;;;5012193;28;20475;-91
2021/10/21 03:19:57;;;;;;;4.30;3.90;;;16.00;99.90;;;;;;5017853;28;20426;-90
2021/10/21 03:22:25;;;;;;;5.93;4.50;;;16.10;99.90;;;;;;5010588;28;20443;-91
2021/10/21 03:24:52;;;;;;;5.27;4.60;;;16.10;99.90;;;;;;5017806;28;20482;-91
2021/10/21 03:27:19;;;;;;;4.20;3.80;;;16.10;99.90;;;;;;5000487;28;20473;-91
2021/10/21 03:29:46;;;;;;;4.17;3.77;;;16.10;99.90;;;;;;5016019;28;20450;-89
2021/10/21 03:32:13;;;;;;;8.03;4.00;;;16.10;99.90;;;;;;5010892;28;20947;-92
2021/10/21 03:34:40;;;;;;;5.90;3.17;;;15.90;99.90;;;;;;5018059;28;20431;-90
2021/10/21 03:37:06;;;;;;;6.07;3.60;;;15.80;99.90;;;;;;5008190;28;20473;-90
2021/10/21 03:39:35;;;;;;;6.23;2.87;;;15.70;99.90;;;;;;4998822;28;20439;-91
2021/10/21 03:42:02;;;;;;;4.50;3.43;;;15.60;99.90;;;;;;4997287;28;20443;-91
2021/10/21 03:44:29;;;;;;;5.20;3.67;;;15.60;99.90;;;;;;4997541;28;20494;-91
2021/10/21 03:46:55;;;;;;;5.93;3.80;;;15.50;99.90;;;;;;4998987;28;20476;-91
2021/10/21 03:49:22;;;;;;;3.33;3.00;;;15.50;99.90;;;;;;5020247;28;20451;-91
2021/10/21 03:51:49;;;;;;;4.73;2.70;;;15.50;99.90;;;;;;5018261;28;20473;-91
2021/10/21 03:54:16;;;;;;;3.00;2.50;;;15.50;99.90;;;;;;4990975;28;20432;-90
2021/10/21 03:56:44;;;;;;;2.40;2.20;;;15.50;99.90;;;;;;5040244;28;20470;-91
2021/10/21 03:59:11;;;;;;;2.57;1.83;;;15.50;99.90;;;;;;5040714;28;20448;-91
2021/10/21 04:01:38;;;;;;;3.97;1.97;;;15.50;99.90;;;;;;5034984;28;20438;-92
2021/10/21 04:04:06;;;;;;;1.90;1.80;;;15.60;99.90;;;;;;5038630;28;20465;-91
2021/10/21 04:06:33;;;;;;;1.80;1.43;;;15.60;99.90;;;;;;5034369;28;20439;-92
2021/10/21 04:09:00;;;;;;;2.30;1.83;;;15.60;99.90;;;;;;5025576;28;20452;-91
2021/10/21 04:11:27;;;;;;;1.70;1.60;;;15.60;99.90;;;;;;5000196;28;20986;-92
2021/10/21 04:13:55;;;;;;;2.90;1.70;;;15.60;99.90;;;;;;4998038;28;20934;-92
2021/10/21 04:16:22;;;;;;;1.60;1.50;;;15.60;99.90;;;;;;4994337;28;20456;-92
2021/10/21 04:18:49;;;;;;;2.70;2.33;;;15.70;99.90;;;;;;4989594;28;20483;-92
2021/10/21 04:21:16;;;;;;;1.90;1.40;;;15.70;99.90;;;;;;5011577;28;20502;-93
2021/10/21 04:23:43;;;;;;;2.00;1.63;;;15.80;99.90;;;;;;5000385;28;20506;-93
2021/10/21 04:26:10;;;;;;;1.67;1.40;;;15.80;99.90;;;;;;4992624;28;20441;-91
2021/10/21 04:28:37;;;;;;;2.17;1.40;;;15.80;99.90;;;;;;4980839;28;20541;-93
2021/10/21 04:31:06;;;;;;;3.13;1.53;;;15.80;99.90;;;;;;4980986;28;20448;-92
2021/10/21 04:33:33;;;;;;;1.60;1.50;;;15.80;99.90;;;;;;4978109;28;20447;-93
2021/10/21 04:36:00;;;;;;;1.67;1.40;;;15.80;99.90;;;;;;4976849;28;20459;-92
2021/10/21 04:38:27;;;;;;;2.20;1.20;;;15.80;99.90;;;;;;4978207;28;20469;-93
2021/10/21 04:40:54;;;;;;;1.73;0.90;;;15.90;99.90;;;;;;4986213;28;20444;-92
2021/10/21 04:43:20;;;;;;;1.07;0.97;;;15.80;99.90;;;;;;5001260;28;20459;-93
2021/10/21 04:45:48;;;;;;;2.43;1.00;;;15.90;99.90;;;;;;4996490;28;20458;-92
2021/10/21 04:48:16;;;;;;;1.83;1.30;;;15.80;99.90;;;;;;4982939;28;20452;-92
2021/10/21 04:50:43;;;;;;;1.60;0.80;;;15.70;99.90;;;;;;4984856;28;20454;-91
2021/10/21 04:53:10;;;;;;;4.17;1.13;;;15.80;99.90;;;;;;4985545;28;20532;-92
2021/10/21 04:55:37;;;;;;;2.80;1.00;;;15.70;99.90;;;;;;4981853;28;21217;-92
2021/10/21 04:58:05;;;;;;;3.50;1.40;;;15.60;99.90;;;;;;5040437;23;20522;-91
2021/10/21 05:00:32;;;;;;;1.40;1.20;;;15.50;99.90;;;;;;5081401;28;20450;-91
2021/10/21 05:03:07;;;;;;;4.93;1.00;;;15.50;99.90;;;;;;5076396;28;20454;-90
2021/10/21 05:05:35;;;;;;;2.73;1.10;;;15.40;99.90;;;;;;5058389;28;20478;-90
2021/10/21 05:08:02;;;;;;;2.97;1.20;;;15.20;99.90;;;;;;5059010;28;20479;-91
2021/10/21 05:10:29;;;;;;;3.53;1.07;;;15.20;99.90;;;;;;5069247;28;20456;-92
2021/10/21 05:12:56;;;;;;;2.30;1.00;;;15.10;99.90;;;;;;5082894;28;20447;-91
2021/10/21 05:15:23;;;;;;;2.20;1.57;;;15.20;99.90;;;;;;5076241;28;20443;-92
2021/10/21 05:17:50;;;;;;;2.67;1.33;;;15.10;99.90;;;;;;5075759;28;20480;-91
2021/10/21 05:20:20;;;;;;;5.37;1.67;;;15.10;99.90;;;;;;5077146;28;20443;-92
2021/10/21 05:22:49;;;;;;;4.33;1.33;;;15.10;99.90;;;;;;5075436;28;20454;-91
2021/10/21 05:25:15;;;;;;;3.40;1.00;;;15.10;99.70;;;;;;5084048;28;20474;-92
2021/10/21 05:27:42;;;;;;;6.70;1.43;;;15.00;99.70;;;;;;5092387;28;20490;-90
2021/10/21 05:30:10;;;;;;;5.80;1.43;;;15.00;99.40;;;;;;5081440;28;20478;-91
2021/10/21 05:32:37;;;;;;;3.00;0.90;;;14.90;99.10;;;;;;5097803;28;20432;-92
2021/10/21 05:35:04;;;;;;;4.07;1.50;;;14.90;99.60;;;;;;5092160;28;20444;-92
2021/10/21 05:37:31;;;;;;;5.03;1.20;;;14.90;99.30;;;;;;5079884;28;20463;-91
2021/10/21 05:39:59;;;;;;;1.97;1.27;;;14.90;98.50;;;;;;5071880;28;20444;-91
2021/10/21 05:42:26;;;;;;;5.67;1.40;;;14.90;99.00;;;;;;5069199;28;20454;-90
2021/10/21 05:44:53;;;;;;;6.17;1.33;;;14.90;98.70;;;;;;5068409;28;20463;-91
2021/10/21 05:47:20;;;;;;;7.37;1.83;;;14.80;97.40;;;;;;5066634;28;20474;-90
2021/10/21 05:49:47;;;;;;;6.10;1.87;;;14.90;97.20;;;;;;5071319;28;20437;-89
2021/10/21 05:52:15;;;;;;;6.03;1.70;;;14.90;97.20;;;;;;5074683;28;20444;-89
2021/10/21 05:54:42;;;;;;;6.30;1.70;;;14.80;97.70;;;;;;5071082;28;20475;-91
2021/10/21 05:57:10;;;;;;;7.20;1.17;;;14.80;97.70;;;;;;5068883;28;20481;-90
2021/10/21 05:59:37;;;;;;;1.97;0.80;;;14.70;97.70;;;;;;5068531;28;20446;-89
2021/10/21 06:02:04;;;;;;;8.67;1.70;;;14.80;97.20;;;;;;5072230;28;20454;-90
2021/10/21 06:04:30;;;;;;;3.10;1.47;;;14.80;97.20;;;;;;5071599;28;20483;-90
2021/10/21 06:06:58;;;;;;;5.30;1.30;;;14.80;97.30;;;;;;5071963;28;20442;-90
2021/10/21 06:09:25;;;;;;;5.47;1.60;;;14.70;97.80;;;;;;5084990;28;20425;-90
2021/10/21 06:11:52;;;;;;;3.50;1.43;;;14.70;97.10;;;;;;5076139;28;20451;-90
2021/10/21 06:14:20;;;;;;;8.73;1.50;;;14.70;97.50;;;;;;5065110;28;20427;-90
2021/10/21 06:16:48;;;;;;;8.87;1.80;;;14.60;98.10;;;;;;5067359;28;20450;-90
2021/10/21 06:19:15;;;;;;;10.20;1.57;;;14.60;97.40;;;;;;5068329;28;21023;-90
2021/10/21 06:21:46;;;;;;;1.30;1.00;;;14.60;97.20;;;;;;5063973;28;20447;-92
2021/10/21 06:24:13;;;;;;;9.97;1.50;;;14.70;96.80;;;;;;5066472;28;20475;-92
2021/10/21 06:26:39;;;;;;;3.40;1.37;;;14.70;96.70;;;;;;5066503;28;20453;-90
2021/10/21 06:29:06;;;;;;;4.90;1.23;;;14.60;97.10;;;;;;5071143;28;20467;-92
2021/10/21 06:31:34;;;;;;;5.53;1.50;;;14.60;96.40;;;;;;5067799;28;20451;-91
2021/10/21 06:34:02;;;;;;;4.13;1.80;;;14.60;96.40;;;;;;5066324;28;20484;-90
2021/10/21 06:36:29;;;;;;;2.77;1.43;;;14.60;96.60;;;;;;5075030;28;20442;-89
2021/10/21 06:38:56;;;;;;;6.93;1.37;;;14.60;96.00;;;;;;5066989;28;20523;-90
2021/10/21 06:41:22;;;;;;;5.93;1.97;;;14.60;95.50;;;;;;5067731;28;20471;-91
2021/10/21 06:43:49;;;;;;;8.60;1.83;;;14.60;95.20;;;;;;5061155;28;20515;-90
2021/10/21 06:46:16;;;;;;;6.70;1.60;;;14.70;94.70;;;;;;5066478;28;20507;-91
2021/10/21 06:48:44;;;;;;;4.50;1.10;;;14.70;94.70;;;;;;5074197;28;20465;-91
2021/10/21 06:51:11;;;;;;;4.10;1.10;;;14.70;93.70;;;;;;5068987;28;20478;-90
2021/10/21 06:53:38;;;;;;;4.20;1.50;;;14.80;93.60;;;;;;5092982;28;20454;-90
2021/10/21 06:56:05;;;;;;;3.20;1.67;;;14.80;94.10;;;;;;5083248;28;20441;-92
2021/10/21 06:58:34;;;;;;;20.00;2.57;;;14.80;94.00;;;;;;5082211;28;20475;-93
2021/10/21 07:01:01;;;;;;;5.77;1.03;;;14.80;93.60;;;;;;5077711;28;20444;-91
2021/10/21 07:03:28;;;;;;;3.20;0.80;;;14.80;93.30;;;;;;5082923;28;20450;-92
2021/10/21 07:05:56;;;;;;;8.57;1.50;;;14.90;92.90;;;;;;5095005;28;20486;-92
2021/10/21 07:08:24;;;;;;;4.23;1.67;;;15.00;92.60;;;;;;5081842;28;20477;-90
2021/10/21 07:10:51;;;;;;;6.23;1.40;;;15.00;92.40;;;;;;5088222;28;20451;-90
2021/10/21 07:13:17;;;;;;;5.00;1.20;;;15.10;92.30;;;;;;5094476;28;20447;-89
2021/10/21 07:15:44;;;;;;;6.93;1.60;;;15.10;92.60;;;;;;5090714;28;20461;-91
2021/10/21 07:18:11;;;;;;;7.00;1.47;;;15.10;92.40;;;;;;5080493;28;20466;-91
2021/10/21 07:20:41;;;;;;;5.80;2.10;;;15.00;92.80;;;;;;5076782;28;21001;-92
2021/10/21 07:23:09;;;;;;;6.50;1.23;;;15.00;92.30;;;;;;5076613;28;20453;-89
2021/10/21 07:25:36;;;;;;;3.83;1.40;;;15.10;91.40;;;;;;5074218;28;20479;-88
2021/10/21 07:28:03;;;;;;;6.70;1.77;;;15.10;92.10;;;;;;5073455;28;20474;-87
2021/10/21 07:30:31;;;;;;;2.70;1.27;;;15.10;91.40;;;;;;5067154;28;20950;-88
2021/10/21 07:32:59;;;;;;;4.57;0.87;;;15.10;91.80;;;;;;5072679;28;20450;-88
2021/10/21 07:35:25;;;;;;;3.23;1.10;;;15.20;91.90;;;;;;5073758;28;20438;-88
2021/10/21 07:37:52;;;;;;;2.97;1.13;;;15.30;91.80;;;;;;5074522;28;20474;-92
2021/10/21 07:40:20;;;;;;;5.07;1.40;;;15.40;91.80;;;;;;5072876;28;20523;-88
2021/10/21 07:42:47;;;;;;;7.40;0.90;;;15.50;91.50;;;;;;5073016;28;20439;-88
2021/10/21 07:45:14;;;;;;;4.07;1.40;;;15.50;90.80;;;;;;5074171;28;20475;-88
2021/10/21 07:47:41;;;;;;;2.30;1.00;;;15.60;90.90;;;;;;5074236;28;20466;-88
2021/10/21 07:50:09;;;;;;;5.17;1.10;;;15.70;90.40;;;;;;5073919;28;20652;-89
2021/10/21 07:52:37;;;;;;;6.90;1.57;;;15.60;90.30;;;;;;5077009;28;20456;-88
2021/10/21 07:55:05;;;;;;;6.00;0.93;;;15.60;90.40;;;;;;5077968;28;20533;-89
2021/10/21 07:57:33;;;;;;;2.20;0.70;;;15.60;90.50;;;;;;5076423;28;20486;-89
2021/10/21 08:00:00;;;;;;;2.90;0.90;;;15.70;90.00;;;;;;5087036;28;20431;-88
2021/10/21 08:02:28;;;;;;;2.20;0.80;;;15.70;90.00;;;;;;5098017;28;20462;-88
2021/10/21 08:04:55;;;;;;;3.20;1.10;;;15.90;89.80;;;;;;5062366;28;20479;-89
2021/10/21 08:07:22;;;;;;;3.13;0.80;;;16.10;90.00;;;;;;5056807;28;20476;-86
2021/10/21 08:09:48;;;;;;;2.30;0.90;;;16.70;88.40;;;;;;5073553;28;20447;-87
2021/10/21 08:12:15;;;;;;;4.73;1.43;;;17.20;85.70;;;;;;5090329;28;20440;-87
2021/10/21 08:14:43;;;;;;;4.43;0.77;;;17.80;84.80;;;;;;5088231;28;20445;-86
2021/10/21 08:17:10;;;;;;;2.00;0.80;;;17.60;81.60;;;;;;5092104;28;20455;-86
2021/10/21 08:19:37;;;;;;;1.03;0.83;;;17.50;82.40;;;;;;5094520;28;20443;-87
2021/10/21 08:22:03;;;;;;;3.43;0.90;;;17.40;82.80;;;;;;5099195;28;20427;-87
2021/10/21 08:24:30;;;;;;;1.87;0.80;;;17.40;83.10;;;;;;5098619;28;20528;-87
2021/10/21 08:26:57;;;;;;;1.33;0.80;;;17.20;84.00;;;;;;5085189;28;20473;-88
2021/10/21 08:29:39;;;;;;;2.20;0.60;;;16.70;83.30;;;;;;5080301;28;20452;-93
2021/10/21 08:32:11;;;;;;;1.93;0.83;;;16.40;84.10;;;;;;5066661;28;20444;-86
2021/10/21 08:34:38;;;;;;;1.10;0.60;;;16.40;85.20;;;;;;5075472;28;20445;-87
2021/10/21 08:37:05;;;;;;;2.87;0.80;;;16.40;85.70;;;;;;5075289;28;20437;-87
2021/10/21 08:39:34;;;;;;;1.10;0.57;;;16.20;85.60;;;;;;5074519;28;20441;-87
2021/10/21 08:42:01;;;;;;;1.23;0.60;;;16.20;85.60;;;;;;5067737;28;20447;-87
2021/10/21 08:44:28;;;;;;;3.93;1.00;;;16.00;86.80;;;;;;5070030;28;20446;-87
2021/10/21 08:46:56;;;;;;;4.23;1.03;;;16.10;87.00;;;;;;5067041;28;20497;-88
2021/10/21 08:49:24;;;;;;;1.43;0.80;;;16.20;86.90;;;;;;5067773;28;20436;-88
2021/10/21 08:51:55;;;;;;;6.13;1.07;;;16.10;86.40;;;;;;5064557;28;20436;-87
2021/10/21 08:54:23;;;;;;;2.17;0.80;;;16.10;87.00;;;;;;5066703;28;20524;-87
2021/10/21 08:56:49;;;;;;;0.93;0.57;;;16.00;88.20;;;;;;5072593;28;20452;-87
2021/10/21 08:59:16;;;;;;;3.33;0.77;;;15.80;89.70;;;;;;5073540;28;20489;-87
2021/10/21 09:01:47;;;;;;;1.50;0.70;;;15.80;90.20;;;;;;5079998;28;20427;-87
2021/10/21 09:04:21;;;;;;;1.87;0.70;;;15.80;90.60;;;;;;5072260;28;20440;-87
2021/10/21 09:09:34;;;;;;;5.57;1.43;;;15.70;91.30;;;;;;5064825;28;20503;-87
2021/10/21 09:12:05;;;;;;;1.40;0.70;;;15.80;91.60;;;;;;5064907;28;20827;-87
2021/10/21 09:14:35;;;;;;;3.17;1.10;;;15.70;91.40;;;;;;5064534;28;21108;-87
2021/10/21 09:17:03;;;;;;;1.37;0.70;;;15.80;91.30;;;;;;5063213;28;20921;-87
2021/10/21 09:19:30;;;;;;;1.63;0.83;;;15.70;91.00;;;;;;5062347;28;20449;-88
2021/10/21 09:21:59;;;;;;;1.37;0.63;;;15.50;91.40;;;;;;5075337;28;20432;-87
2021/10/21 09:24:28;;;;;;;1.53;0.93;;;15.40;91.20;;;;;;5069207;28;20447;-87
2021/10/21 09:27:06;;;;;;;0.90;0.50;;;15.30;90.80;;;;;;5084527;28;20483;-87
2021/10/21 09:29:35;;;;;;;2.00;0.70;;;15.30;90.40;;;;;;5074780;28;20955;-87
2021/10/21 09:32:07;;;;;;;1.00;0.53;;;15.50;90.80;;;;;;5070063;28;20462;-87
2021/10/21 09:34:42;;;;;;;4.40;0.77;;;15.70;90.20;;;;;;5063884;28;20448;-88
2021/10/21 09:37:12;;;;;;;4.43;1.13;;;15.60;90.00;;;;;;5063176;28;20898;-87
2021/10/21 09:39:44;;;;;;;1.80;0.47;;;15.60;89.50;;;;;;5064442;28;20470;-87
2021/10/21 09:42:12;;;;;;;0.50;0.30;;;15.70;89.40;;;;;;5053897;28;20787;-87
2021/10/21 09:44:39;;;;;;;0.60;0.33;;;15.70;89.20;;;;;;5054214;28;20950;-87
2021/10/21 09:47:20;;;;;;;0.90;0.40;;;15.80;89.80;;;;;;5053786;28;20496;-87
2021/10/21 09:49:52;;;;;;;0.60;0.40;;;15.90;89.60;;;;;;5053847;28;20444;-88
2021/10/21 09:52:22;;;;;;;0.67;0.40;;;16.00;89.00;;;;;;5073756;28;20436;-87
2021/10/21 09:54:50;;;;;;;0.67;0.30;;;16.10;89.00;;;;;;5083581;28;20444;-87
2021/10/21 09:57:18;;;;;;;2.40;0.60;;;16.10;87.40;;;;;;5073867;28;21056;-88
2021/10/21 09:59:59;;;;;;;5.23;3.40;;;16.30;87.80;;;;;;5073724;28;20452;-88
2021/10/21 10:02:30;;;;;;;2.80;2.20;;;17.30;85.00;;;;;;5076672;28;20452;-87
2021/10/21 10:05:01;;;;;;;1.93;1.40;;;19.40;79.50;;;;;;5074666;28;20452;-87
2021/10/21 10:07:30;;;;;;;2.43;0.70;;;21.30;72.00;;;;;;5095281;28;20479;-87
2021/10/21 10:09:59;;;;;;;3.00;1.13;;;22.00;65.00;;;;;;5077471;28;20546;-87
2021/10/21 10:12:27;;;;;;;2.63;1.00;;;22.50;62.10;;;;;;5074416;28;20451;-88
2021/10/21 10:14:54;;;;;;;2.07;1.17;;;22.90;59.10;;;;;;5073806;28;20454;-87
2021/10/21 10:17:23;;;;;;;4.13;1.50;;;23.40;57.90;;;;;;5073500;28;20456;-87
2021/10/21 10:19:51;;;;;;;3.33;1.40;;;23.50;57.20;;;;;;5073441;28;20536;-88
2021/10/21 10:22:23;;;;;;;4.80;1.80;;;24.30;54.90;;;;;;5074736;28;20856;-87
2021/10/21 10:24:52;;;;;;;3.10;2.17;;;25.10;55.10;;;;;;5073413;28;20453;-87
2021/10/21 10:27:22;;;;;;;1.67;1.33;;;25.00;53.80;;;;;;5073962;28;20481;-87
2021/10/21 10:29:50;;;;;;;6.40;2.20;;;24.70;52.90;;;;;;5075584;28;20456;-87
2021/10/21 10:32:35;;;;;;;2.97;1.30;;;24.80;51.30;;;;;;5075498;28;20445;-87
2021/10/21 10:35:04;;;;;;;3.10;2.03;;;25.30;51.20;;;;;;5072798;28;20453;-87
2021/10/21 10:37:55;;;;;;;3.00;1.60;;;26.00;50.80;;;;;;5072717;28;21025;-88
2021/10/21 10:40:58;;;;;;;1.90;1.20;;;26.60;49.10;;;;;;5062852;28;20432;-88
2021/10/21 10:43:39;;;;;;;4.17;2.03;;;27.40;47.50;;;;;;5072724;28;20443;-87
2021/10/21 10:46:06;;;;;;;3.53;1.73;;;28.20;45.40;;;;;;5089687;28;20494;-88
2021/10/21 10:48:51;;;;;;;4.07;2.07;;;27.60;45.00;;;;;;5091240;28;20462;-88
2021/10/21 10:51:18;;;;;;;2.20;1.10;;;26.80;45.00;;;;;;5078811;28;20454;-88
2021/10/21 10:53:50;;;;;;;3.03;1.40;;;26.80;45.60;;;;;;5073693;28;20432;-89
2021/10/21 10:56:47;;;;;;;2.60;1.10;;;26.70;45.70;;;;;;5073974;28;20444;-88
2021/10/21 10:59:32;;;;;;;1.97;1.10;;;27.50;44.70;;;;;;5072826;28;20447;-88
2021/10/21 11:02:02;;;;;;;5.70;2.90;;;28.30;43.70;;;;;;5072986;28;20447;-88
2021/10/21 11:04:58;;;;;;;2.33;1.57;;;28.70;43.20;;;;;;5073193;28;20447;-88
2021/10/21 11:07:27;;;;;;;2.87;2.20;;;26.50;43.70;;;;;;5071739;28;20503;-88
2021/10/21 11:09:55;;;;;;;2.47;1.33;;;26.80;45.80;;;;;;5072618;28;20447;-87
2021/10/21 11:12:24;;;;;;;2.20;1.67;;;27.70;44.50;;;;;;5073569;28;20443;-87
2021/10/21 11:14:55;;;;;;;3.00;1.67;;;28.80;45.50;;;;;;5074070;23;20499;-84
2021/10/21 11:17:42;;;;;;;2.17;1.00;;;29.30;42.40;;;;;;5041003;28;20552;-83
2021/10/21 11:20:41;;;;;;;2.30;1.13;;;28.70;42.70;;;;;;5052609;28;20448;-81
2021/10/21 11:23:28;;;;;;;6.40;1.00;;;28.70;41.50;;;;;;5043701;28;20445;-82
2021/10/21 11:26:00;;;;;;;1.87;0.83;;;26.00;43.00;;;;;;5039895;28;20476;-83
2021/10/21 11:28:29;;;;;;;5.80;3.40;;;25.50;45.30;;;;;;5043663;28;20934;-83
2021/10/21 11:30:56;;;;;;;3.87;2.57;;;25.40;45.90;;;;;;5044290;28;20451;-83
2021/10/21 11:33:26;;;;;;;3.80;2.13;;;26.10;45.70;;;;;;5040295;28;20464;-84
2021/10/21 11:35:53;;;;;;;2.53;1.10;;;26.60;44.70;;;;;;5041197;28;20832;-84
2021/10/21 11:38:21;;;;;;;1.43;0.97;;;25.00;43.80;;;;;;5045995;28;20501;-84
2021/10/21 11:40:49;;;;;;;1.80;0.80;;;24.80;45.90;;;;;;5049411;28;20448;-82
2021/10/21 11:46:07;;;;;;;5.20;3.17;;;21.30;48.10;;;;;;5051084;28;20560;-86
2021/10/21 11:48:38;;;;;;;4.17;2.20;;;22.00;51.10;;;;;;5047122;28;20549;-87
2021/10/21 11:51:08;;;;;;;6.20;3.40;;;23.30;48.60;;;;;;5040108;28;20458;-88
2021/10/21 11:53:35;;;;;;;3.60;2.47;;;25.00;46.70;;;;;;5039986;28;20562;-87
2021/10/21 11:56:02;;;;;;;5.33;3.37;;;26.00;44.80;;;;;;5038893;28;20571;-88
2021/10/21 11:58:33;;;;;;;2.53;1.40;;;27.40;43.00;;;;;;5038716;28;20521;-87
2021/10/21 12:01:03;;;;;;;1.97;1.40;;;26.40;42.10;;;;;;5039859;28;20525;-87
2021/10/21 12:03:39;;;;;;;4.87;1.70;;;26.30;42.70;;;;;;5038287;28;20455;-87
2021/10/21 12:06:09;;;;;;;2.50;1.20;;;26.30;43.00;;;;;;5039451;28;20483;-88
2021/10/21 12:08:38;;;;;;;3.10;1.10;;;24.90;42.30;;;;;;5041881;28;20456;-88
2021/10/21 12:11:08;;;;;;;2.00;1.37;;;23.50;45.90;;;;;;5039163;28;20463;-87
2021/10/21 12:13:38;;;;;;;3.30;1.60;;;23.10;46.50;;;;;;5037810;28;20531;-87
2021/10/21 12:16:10;;;;;;;3.43;1.87;;;22.70;47.60;;;;;;5027531;28;20455;-88
2021/10/21 12:18:41;;;;;;;5.33;1.60;;;22.20;48.10;;;;;;5024715;28;20479;-87
2021/10/21 12:21:12;;;;;;;5.50;2.10;;;21.40;47.80;;;;;;5018693;28;20506;-87
2021/10/21 12:23:48;;;;;;;3.20;1.07;;;20.70;49.30;;;;;;5016779;28;20473;-87
2021/10/21 12:26:21;;;;;;;5.40;1.77;;;20.10;50.20;;;;;;5017089;28;20874;-88
2021/10/21 12:28:52;;;;;;;4.40;1.90;;;20.80;50.30;;;;;;5016170;28;20458;-87
2021/10/21 12:31:25;;;;;;;3.10;1.57;;;21.20;50.30;;;;;;5020359;28;20461;-87
2021/10/21 12:39:34;;;;;;;2.60;1.10;;;20.40;51.90;;;;;;2847792;23;20481;-87
2021/10/21 12:42:06;;;;;;;1.83;0.90;;;20.20;52.50;;;;;;5016918;28;20862;-87
2021/10/21 12:44:35;;;;;;;4.37;1.53;;;20.30;53.10;;;;;;5015764;28;20488;-88
2021/10/21 12:47:20;;;;;;;4.53;2.20;;;20.20;52.60;;;;;;5017338;28;20511;-87
2021/10/21 12:49:56;;;;;;;1.80;1.30;;;19.90;53.50;;;;;;5015988;28;20582;-88
2021/10/21 12:52:27;;;;;;;1.60;0.90;;;20.10;53.80;;;;;;5016755;28;20478;-88
2021/10/21 12:55:14;;;;;;;2.60;1.30;;;20.10;53.50;;;;;;5068747;23;20858;-88
2021/10/21 12:57:43;;;;;;;2.83;2.00;;;19.70;53.70;;;;;;5092821;28;20430;-88
2021/10/21 13:00:12;;;;;;;4.10;2.43;;;19.60;54.20;;;;;;5097397;28;20436;-86
2021/10/21 13:02:39;;;;;;;1.43;0.80;;;19.50;54.50;;;;;;5078754;28;20484;-86